sensor_id;sensor_type;location;lat;lon;timestamp;P1;durP1;ratioP1;P2;durP2;ratioP2
15194;SDS011;7698;42.478;23.756;2023-03-19T00:01:25;5.18;;;4.68;;
15194;SDS011;7698;42.478;23.756;2023-03-19T00:03:52;6.32;;;5.30;;
15194;SDS011;7698;42.478;23.756;2023-03-19T00:06:18;7.90;;;5.20;;
15194;SDS011;7698;42.478;23.756;2023-03-19T00:08:45;7.63;;;5.80;;
15194;SDS011;7698;42.478;23.756;2023-03-19T00:11:13;6.63;;;5.38;;
15194;SDS011;7698;42.478;23.756;2023-03-19T00:13:40;6.28;;;4.35;;
15194;SDS011;7698;42.478;23.756;2023-03-19T00:16:06;6.38;;;4.65;;
15194;SDS011;7698;42.478;23.756;2023-03-19T00:18:33;5.53;;;5.00;;
15194;SDS011;7698;42.478;23.756;2023-03-19T00:21:00;5.97;;;4.65;;
15194;SDS011;7698;42.478;23.756;2023-03-19T00:23:27;7.47;;;4.93;;
15194;SDS011;7698;42.478;23.756;2023-03-19T00:25:54;4.40;;;4.00;;
15194;SDS011;7698;42.478;23.756;2023-03-19T00:28:21;5.57;;;4.35;;
15194;SDS011;7698;42.478;23.756;2023-03-19T00:30:48;3.95;;;3.47;;
15194;SDS011;7698;42.478;23.756;2023-03-19T00:33:15;4.50;;;3.50;;
15194;SDS011;7698;42.478;23.756;2023-03-19T00:35:41;5.40;;;3.50;;
15194;SDS011;7698;42.478;23.756;2023-03-19T00:38:08;4.65;;;4.18;;
15194;SDS011;7698;42.478;23.756;2023-03-19T00:40:35;4.22;;;3.83;;
15194;SDS011;7698;42.478;23.756;2023-03-19T00:43:01;5.63;;;4.07;;
15194;SDS011;7698;42.478;23.756;2023-03-19T00:45:29;4.73;;;3.73;;
15194;SDS011;7698;42.478;23.756;2023-03-19T00:47:56;5.60;;;4.13;;
15194;SDS011;7698;42.478;23.756;2023-03-19T00:50:23;3.50;;;3.20;;
15194;SDS011;7698;42.478;23.756;2023-03-19T00:52:50;5.65;;;5.05;;
15194;SDS011;7698;42.478;23.756;2023-03-19T00:55:17;9.45;;;6.53;;
15194;SDS011;7698;42.478;23.756;2023-03-19T00:57:43;8.47;;;5.80;;
15194;SDS011;7698;42.478;23.756;2023-03-19T01:00:10;6.75;;;5.88;;
15194;SDS011;7698;42.478;23.756;2023-03-19T01:02:39;5.90;;;5.17;;
15194;SDS011;7698;42.478;23.756;2023-03-19T01:05:06;4.68;;;4.20;;
15194;SDS011;7698;42.478;23.756;2023-03-19T01:07:33;6.57;;;5.87;;
15194;SDS011;7698;42.478;23.756;2023-03-19T01:10:00;7.15;;;5.88;;
15194;SDS011;7698;42.478;23.756;2023-03-19T01:12:27;5.30;;;4.87;;
15194;SDS011;7698;42.478;23.756;2023-03-19T01:14:53;5.28;;;4.40;;
15194;SDS011;7698;42.478;23.756;2023-03-19T01:17:20;5.60;;;5.10;;
15194;SDS011;7698;42.478;23.756;2023-03-19T01:19:48;7.70;;;6.23;;
15194;SDS011;7698;42.478;23.756;2023-03-19T01:22:15;14.83;;;10.10;;
15194;SDS011;7698;42.478;23.756;2023-03-19T01:24:42;16.87;;;11.87;;
15194;SDS011;7698;42.478;23.756;2023-03-19T01:27:09;17.77;;;13.15;;
15194;SDS011;7698;42.478;23.756;2023-03-19T01:29:36;15.43;;;10.90;;
15194;SDS011;7698;42.478;23.756;2023-03-19T01:32:03;9.80;;;8.23;;
15194;SDS011;7698;42.478;23.756;2023-03-19T01:34:30;13.13;;;9.82;;
15194;SDS011;7698;42.478;23.756;2023-03-19T01:36:58;9.80;;;7.28;;
15194;SDS011;7698;42.478;23.756;2023-03-19T01:39:24;9.63;;;6.27;;
15194;SDS011;7698;42.478;23.756;2023-03-19T01:41:51;7.53;;;5.95;;
15194;SDS011;7698;42.478;23.756;2023-03-19T01:44:25;5.15;;;4.47;;
15194;SDS011;7698;42.478;23.756;2023-03-19T01:46:52;5.20;;;4.28;;
15194;SDS011;7698;42.478;23.756;2023-03-19T01:49:18;5.20;;;4.20;;
15194;SDS011;7698;42.478;23.756;2023-03-19T01:51:47;4.83;;;4.10;;
15194;SDS011;7698;42.478;23.756;2023-03-19T01:54:16;5.60;;;4.47;;
15194;SDS011;7698;42.478;23.756;2023-03-19T01:56:44;5.13;;;3.70;;
15194;SDS011;7698;42.478;23.756;2023-03-19T01:59:13;5.73;;;5.13;;
15194;SDS011;7698;42.478;23.756;2023-03-19T02:01:42;4.10;;;3.70;;
15194;SDS011;7698;42.478;23.756;2023-03-19T02:04:09;9.53;;;6.33;;
15194;SDS011;7698;42.478;23.756;2023-03-19T02:06:35;4.70;;;4.17;;
15194;SDS011;7698;42.478;23.756;2023-03-19T02:09:02;4.53;;;4.07;;
15194;SDS011;7698;42.478;23.756;2023-03-19T02:11:30;7.50;;;5.82;;
15194;SDS011;7698;42.478;23.756;2023-03-19T02:13:57;9.73;;;6.60;;
15194;SDS011;7698;42.478;23.756;2023-03-19T02:16:24;6.30;;;5.70;;
15194;SDS011;7698;42.478;23.756;2023-03-19T02:18:51;6.60;;;5.20;;
15194;SDS011;7698;42.478;23.756;2023-03-19T02:21:18;6.55;;;5.78;;
15194;SDS011;7698;42.478;23.756;2023-03-19T02:23:46;5.20;;;4.22;;
15194;SDS011;7698;42.478;23.756;2023-03-19T02:26:16;6.53;;;5.57;;
15194;SDS011;7698;42.478;23.756;2023-03-19T02:28:44;6.03;;;4.88;;
15194;SDS011;7698;42.478;23.756;2023-03-19T02:31:11;5.80;;;4.97;;
15194;SDS011;7698;42.478;23.756;2023-03-19T02:33:38;5.63;;;4.72;;
15194;SDS011;7698;42.478;23.756;2023-03-19T02:36:08;8.15;;;6.05;;
15194;SDS011;7698;42.478;23.756;2023-03-19T02:38:35;8.55;;;6.10;;
15194;SDS011;7698;42.478;23.756;2023-03-19T02:41:05;9.18;;;7.20;;
15194;SDS011;7698;42.478;23.756;2023-03-19T02:43:34;7.82;;;6.50;;
15194;SDS011;7698;42.478;23.756;2023-03-19T02:46:01;9.30;;;7.63;;
15194;SDS011;7698;42.478;23.756;2023-03-19T02:48:27;8.40;;;6.37;;
15194;SDS011;7698;42.478;23.756;2023-03-19T02:50:54;6.40;;;5.70;;
15194;SDS011;7698;42.478;23.756;2023-03-19T02:53:21;6.75;;;6.05;;
15194;SDS011;7698;42.478;23.756;2023-03-19T02:55:47;7.70;;;6.90;;
15194;SDS011;7698;42.478;23.756;2023-03-19T02:58:14;8.17;;;6.87;;
15194;SDS011;7698;42.478;23.756;2023-03-19T03:00:41;8.98;;;7.07;;
15194;SDS011;7698;42.478;23.756;2023-03-19T03:03:09;5.90;;;5.27;;
15194;SDS011;7698;42.478;23.756;2023-03-19T03:05:35;5.77;;;5.03;;
15194;SDS011;7698;42.478;23.756;2023-03-19T03:08:02;6.03;;;5.43;;
15194;SDS011;7698;42.478;23.756;2023-03-19T03:10:29;6.28;;;4.70;;
15194;SDS011;7698;42.478;23.756;2023-03-19T03:12:56;4.95;;;4.20;;
15194;SDS011;7698;42.478;23.756;2023-03-19T03:15:22;4.63;;;3.97;;
15194;SDS011;7698;42.478;23.756;2023-03-19T03:17:50;5.97;;;4.88;;
15194;SDS011;7698;42.478;23.756;2023-03-19T03:20:17;5.60;;;4.63;;
15194;SDS011;7698;42.478;23.756;2023-03-19T03:22:45;5.00;;;4.50;;
15194;SDS011;7698;42.478;23.756;2023-03-19T03:25:12;5.88;;;4.32;;
15194;SDS011;7698;42.478;23.756;2023-03-19T03:27:39;5.72;;;4.32;;
15194;SDS011;7698;42.478;23.756;2023-03-19T03:30:06;5.77;;;5.20;;
15194;SDS011;7698;42.478;23.756;2023-03-19T03:32:34;4.20;;;3.80;;
15194;SDS011;7698;42.478;23.756;2023-03-19T03:35:03;6.07;;;5.47;;
15194;SDS011;7698;42.478;23.756;2023-03-19T03:37:30;6.00;;;4.80;;
15194;SDS011;7698;42.478;23.756;2023-03-19T03:39:57;5.20;;;4.75;;
15194;SDS011;7698;42.478;23.756;2023-03-19T03:42:23;4.38;;;3.70;;
15194;SDS011;7698;42.478;23.756;2023-03-19T03:44:50;5.47;;;4.80;;
15194;SDS011;7698;42.478;23.756;2023-03-19T03:47:16;5.93;;;4.72;;
15194;SDS011;7698;42.478;23.756;2023-03-19T03:49:43;6.17;;;4.70;;
15194;SDS011;7698;42.478;23.756;2023-03-19T03:52:11;4.83;;;4.33;;
15194;SDS011;7698;42.478;23.756;2023-03-19T03:54:38;6.47;;;5.23;;
15194;SDS011;7698;42.478;23.756;2023-03-19T03:57:05;5.67;;;4.57;;
15194;SDS011;7698;42.478;23.756;2023-03-19T03:59:32;6.00;;;5.05;;
15194;SDS011;7698;42.478;23.756;2023-03-19T04:01:58;5.50;;;4.90;;
15194;SDS011;7698;42.478;23.756;2023-03-19T04:04:25;4.83;;;4.30;;
15194;SDS011;7698;42.478;23.756;2023-03-19T04:06:51;6.27;;;5.57;;
15194;SDS011;7698;42.478;23.756;2023-03-19T04:09:19;6.93;;;5.22;;
15194;SDS011;7698;42.478;23.756;2023-03-19T04:11:46;5.47;;;4.77;;
15194;SDS011;7698;42.478;23.756;2023-03-19T04:14:13;4.53;;;4.13;;
15194;SDS011;7698;42.478;23.756;2023-03-19T04:16:39;6.13;;;4.90;;
15194;SDS011;7698;42.478;23.756;2023-03-19T04:19:07;5.47;;;4.73;;
15194;SDS011;7698;42.478;23.756;2023-03-19T04:21:33;5.03;;;4.53;;
15194;SDS011;7698;42.478;23.756;2023-03-19T04:24:00;6.13;;;4.80;;
15194;SDS011;7698;42.478;23.756;2023-03-19T04:26:29;5.35;;;4.85;;
15194;SDS011;7698;42.478;23.756;2023-03-19T04:28:56;5.68;;;4.90;;
15194;SDS011;7698;42.478;23.756;2023-03-19T04:31:23;5.60;;;4.80;;
15194;SDS011;7698;42.478;23.756;2023-03-19T04:33:49;5.77;;;4.97;;
15194;SDS011;7698;42.478;23.756;2023-03-19T04:36:16;5.73;;;4.57;;
15194;SDS011;7698;42.478;23.756;2023-03-19T04:38:43;5.57;;;4.30;;
15194;SDS011;7698;42.478;23.756;2023-03-19T04:41:09;3.90;;;3.50;;
15194;SDS011;7698;42.478;23.756;2023-03-19T04:43:37;6.80;;;5.17;;
15194;SDS011;7698;42.478;23.756;2023-03-19T04:46:04;5.07;;;3.90;;
15194;SDS011;7698;42.478;23.756;2023-03-19T04:48:32;5.17;;;4.17;;
15194;SDS011;7698;42.478;23.756;2023-03-19T04:50:59;5.67;;;4.67;;
15194;SDS011;7698;42.478;23.756;2023-03-19T04:53:27;4.50;;;3.90;;
15194;SDS011;7698;42.478;23.756;2023-03-19T04:55:53;4.60;;;3.93;;
15194;SDS011;7698;42.478;23.756;2023-03-19T04:58:20;5.00;;;4.50;;
15194;SDS011;7698;42.478;23.756;2023-03-19T05:00:48;3.83;;;3.27;;
15194;SDS011;7698;42.478;23.756;2023-03-19T05:03:14;6.70;;;3.80;;
15194;SDS011;7698;42.478;23.756;2023-03-19T05:05:41;5.30;;;4.37;;
15194;SDS011;7698;42.478;23.756;2023-03-19T05:08:08;5.03;;;4.63;;
15194;SDS011;7698;42.478;23.756;2023-03-19T05:10:35;6.30;;;4.57;;
15194;SDS011;7698;42.478;23.756;2023-03-19T05:13:02;5.87;;;4.73;;
15194;SDS011;7698;42.478;23.756;2023-03-19T05:15:28;6.53;;;5.30;;
15194;SDS011;7698;42.478;23.756;2023-03-19T05:17:56;5.37;;;4.87;;
15194;SDS011;7698;42.478;23.756;2023-03-19T05:20:23;5.70;;;5.10;;
15194;SDS011;7698;42.478;23.756;2023-03-19T05:22:50;6.13;;;5.33;;
15194;SDS011;7698;42.478;23.756;2023-03-19T05:25:17;7.68;;;6.13;;
15194;SDS011;7698;42.478;23.756;2023-03-19T05:27:44;5.43;;;4.93;;
15194;SDS011;7698;42.478;23.756;2023-03-19T05:30:11;5.88;;;4.78;;
15194;SDS011;7698;42.478;23.756;2023-03-19T05:32:38;6.63;;;5.88;;
15194;SDS011;7698;42.478;23.756;2023-03-19T05:35:06;11.90;;;8.95;;
15194;SDS011;7698;42.478;23.756;2023-03-19T05:37:33;12.07;;;8.63;;
15194;SDS011;7698;42.478;23.756;2023-03-19T05:39:59;5.88;;;5.28;;
15194;SDS011;7698;42.478;23.756;2023-03-19T05:42:26;5.10;;;4.70;;
15194;SDS011;7698;42.478;23.756;2023-03-19T05:44:53;7.65;;;6.80;;
15194;SDS011;7698;42.478;23.756;2023-03-19T05:47:20;7.22;;;6.13;;
15194;SDS011;7698;42.478;23.756;2023-03-19T05:49:46;8.45;;;7.47;;
15194;SDS011;7698;42.478;23.756;2023-03-19T05:52:14;9.23;;;8.30;;
15194;SDS011;7698;42.478;23.756;2023-03-19T05:54:41;7.15;;;6.45;;
15194;SDS011;7698;42.478;23.756;2023-03-19T05:57:07;6.72;;;6.03;;
15194;SDS011;7698;42.478;23.756;2023-03-19T05:59:34;7.20;;;6.50;;
15194;SDS011;7698;42.478;23.756;2023-03-19T06:02:01;7.07;;;6.18;;
15194;SDS011;7698;42.478;23.756;2023-03-19T06:04:28;6.97;;;6.32;;
15194;SDS011;7698;42.478;23.756;2023-03-19T06:06:54;22.63;;;19.92;;
15194;SDS011;7698;42.478;23.756;2023-03-19T06:09:23;12.10;;;10.20;;
15194;SDS011;7698;42.478;23.756;2023-03-19T06:11:49;7.35;;;6.65;;
15194;SDS011;7698;42.478;23.756;2023-03-19T06:14:16;6.88;;;6.28;;
15194;SDS011;7698;42.478;23.756;2023-03-19T06:16:43;7.38;;;6.68;;
15194;SDS011;7698;42.478;23.756;2023-03-19T06:19:10;8.57;;;7.68;;
15194;SDS011;7698;42.478;23.756;2023-03-19T06:21:36;7.53;;;6.85;;
15194;SDS011;7698;42.478;23.756;2023-03-19T06:24:03;7.43;;;6.70;;
15194;SDS011;7698;42.478;23.756;2023-03-19T06:26:32;6.53;;;5.93;;
15194;SDS011;7698;42.478;23.756;2023-03-19T06:28:59;7.03;;;6.35;;
15194;SDS011;7698;42.478;23.756;2023-03-19T06:31:25;6.53;;;5.93;;
15194;SDS011;7698;42.478;23.756;2023-03-19T06:33:52;5.70;;;5.20;;
15194;SDS011;7698;42.478;23.756;2023-03-19T06:36:19;5.53;;;4.38;;
15194;SDS011;7698;42.478;23.756;2023-03-19T06:38:46;5.93;;;5.43;;
15194;SDS011;7698;42.478;23.756;2023-03-19T06:41:12;6.85;;;6.15;;
15194;SDS011;7698;42.478;23.756;2023-03-19T06:43:40;6.05;;;5.45;;
15194;SDS011;7698;42.478;23.756;2023-03-19T06:46:07;4.90;;;4.50;;
15194;SDS011;7698;42.478;23.756;2023-03-19T06:48:34;5.32;;;4.82;;
15194;SDS011;7698;42.478;23.756;2023-03-19T06:51:01;4.47;;;4.07;;
15194;SDS011;7698;42.478;23.756;2023-03-19T06:53:28;4.47;;;4.07;;
15194;SDS011;7698;42.478;23.756;2023-03-19T06:55:55;6.65;;;5.95;;
15194;SDS011;7698;42.478;23.756;2023-03-19T06:58:21;4.47;;;3.97;;
15194;SDS011;7698;42.478;23.756;2023-03-19T07:00:49;5.68;;;5.13;;
15194;SDS011;7698;42.478;23.756;2023-03-19T07:03:16;5.10;;;4.65;;
15194;SDS011;7698;42.478;23.756;2023-03-19T07:05:43;6.68;;;5.53;;
15194;SDS011;7698;42.478;23.756;2023-03-19T07:08:09;4.15;;;3.67;;
15194;SDS011;7698;42.478;23.756;2023-03-19T07:10:36;5.28;;;4.68;;
15194;SDS011;7698;42.478;23.756;2023-03-19T07:13:03;4.65;;;4.25;;
15194;SDS011;7698;42.478;23.756;2023-03-19T07:15:30;4.90;;;4.50;;
15194;SDS011;7698;42.478;23.756;2023-03-19T07:17:58;4.35;;;3.97;;
15194;SDS011;7698;42.478;23.756;2023-03-19T07:20:25;5.80;;;4.93;;
15194;SDS011;7698;42.478;23.756;2023-03-19T07:22:52;4.30;;;3.90;;
15194;SDS011;7698;42.478;23.756;2023-03-19T07:25:18;4.40;;;3.80;;
15194;SDS011;7698;42.478;23.756;2023-03-19T07:27:45;3.85;;;3.47;;
15194;SDS011;7698;42.478;23.756;2023-03-19T07:30:12;6.13;;;5.05;;
15194;SDS011;7698;42.478;23.756;2023-03-19T07:32:39;5.43;;;4.45;;
15194;SDS011;7698;42.478;23.756;2023-03-19T07:35:08;5.32;;;4.75;;
15194;SDS011;7698;42.478;23.756;2023-03-19T07:37:35;4.95;;;4.43;;
15194;SDS011;7698;42.478;23.756;2023-03-19T07:40:02;6.68;;;5.40;;
15194;SDS011;7698;42.478;23.756;2023-03-19T07:42:29;9.60;;;5.82;;
15194;SDS011;7698;42.478;23.756;2023-03-19T07:44:56;4.65;;;4.25;;
15194;SDS011;7698;42.478;23.756;2023-03-19T07:47:23;4.22;;;3.70;;
15194;SDS011;7698;42.478;23.756;2023-03-19T07:49:49;4.22;;;3.83;;
15194;SDS011;7698;42.478;23.756;2023-03-19T07:52:18;4.45;;;3.67;;
15194;SDS011;7698;42.478;23.756;2023-03-19T07:54:45;4.15;;;3.75;;
15194;SDS011;7698;42.478;23.756;2023-03-19T07:57:11;3.33;;;2.90;;
15194;SDS011;7698;42.478;23.756;2023-03-19T07:59:39;4.05;;;3.15;;
15194;SDS011;7698;42.478;23.756;2023-03-19T08:02:07;3.63;;;3.10;;
15194;SDS011;7698;42.478;23.756;2023-03-19T08:04:34;3.38;;;2.90;;
15194;SDS011;7698;42.478;23.756;2023-03-19T08:07:01;3.40;;;2.70;;
15194;SDS011;7698;42.478;23.756;2023-03-19T08:09:29;3.28;;;3.03;;
15194;SDS011;7698;42.478;23.756;2023-03-19T08:11:56;3.05;;;2.67;;
15194;SDS011;7698;42.478;23.756;2023-03-19T08:14:23;3.33;;;3.05;;
15194;SDS011;7698;42.478;23.756;2023-03-19T08:16:50;4.47;;;2.65;;
15194;SDS011;7698;42.478;23.756;2023-03-19T08:19:16;2.85;;;2.60;;
15194;SDS011;7698;42.478;23.756;2023-03-19T08:21:43;4.28;;;3.38;;
15194;SDS011;7698;42.478;23.756;2023-03-19T08:24:10;4.40;;;4.00;;
15194;SDS011;7698;42.478;23.756;2023-03-19T08:26:39;3.40;;;3.10;;
15194;SDS011;7698;42.478;23.756;2023-03-19T08:29:05;2.70;;;2.50;;
15194;SDS011;7698;42.478;23.756;2023-03-19T08:31:32;2.95;;;2.65;;
15194;SDS011;7698;42.478;23.756;2023-03-19T08:33:59;3.17;;;2.88;;
15194;SDS011;7698;42.478;23.756;2023-03-19T08:36:27;4.65;;;3.35;;
15194;SDS011;7698;42.478;23.756;2023-03-19T08:38:54;4.13;;;3.72;;
15194;SDS011;7698;42.478;23.756;2023-03-19T08:41:21;2.75;;;2.55;;
15194;SDS011;7698;42.478;23.756;2023-03-19T08:43:49;2.75;;;2.28;;
15194;SDS011;7698;42.478;23.756;2023-03-19T08:46:16;2.45;;;2.25;;
15194;SDS011;7698;42.478;23.756;2023-03-19T08:48:43;2.80;;;2.40;;
15194;SDS011;7698;42.478;23.756;2023-03-19T08:51:09;2.47;;;2.30;;
15194;SDS011;7698;42.478;23.756;2023-03-19T08:53:37;2.45;;;2.25;;
15194;SDS011;7698;42.478;23.756;2023-03-19T08:56:05;2.20;;;2.00;;
15194;SDS011;7698;42.478;23.756;2023-03-19T08:58:32;2.72;;;2.45;;
15194;SDS011;7698;42.478;23.756;2023-03-19T09:01:04;2.20;;;2.08;;
15194;SDS011;7698;42.478;23.756;2023-03-19T09:03:31;1.92;;;1.83;;
15194;SDS011;7698;42.478;23.756;2023-03-19T09:05:58;3.28;;;2.00;;
15194;SDS011;7698;42.478;23.756;2023-03-19T09:08:26;1.90;;;1.80;;
15194;SDS011;7698;42.478;23.756;2023-03-19T09:10:53;1.40;;;1.30;;
15194;SDS011;7698;42.478;23.756;2023-03-19T09:13:19;1.50;;;1.20;;
15194;SDS011;7698;42.478;23.756;2023-03-19T09:15:46;1.63;;;1.33;;
15194;SDS011;7698;42.478;23.756;2023-03-19T09:18:15;1.90;;;1.77;;
15194;SDS011;7698;42.478;23.756;2023-03-19T09:20:42;1.63;;;1.52;;
15194;SDS011;7698;42.478;23.756;2023-03-19T09:23:09;1.08;;;1.00;;
15194;SDS011;7698;42.478;23.756;2023-03-19T09:25:35;1.70;;;1.60;;
15194;SDS011;7698;42.478;23.756;2023-03-19T09:28:02;1.67;;;1.58;;
15194;SDS011;7698;42.478;23.756;2023-03-19T09:30:29;1.42;;;1.33;;
15194;SDS011;7698;42.478;23.756;2023-03-19T09:32:56;1.17;;;1.10;;
15194;SDS011;7698;42.478;23.756;2023-03-19T09:35:23;1.58;;;1.48;;
15194;SDS011;7698;42.478;23.756;2023-03-19T09:37:55;1.88;;;1.75;;
15194;SDS011;7698;42.478;23.756;2023-03-19T09:40:23;2.40;;;2.20;;
15194;SDS011;7698;42.478;23.756;2023-03-19T09:42:53;1.55;;;1.45;;
15194;SDS011;7698;42.478;23.756;2023-03-19T09:45:24;1.70;;;1.52;;
15194;SDS011;7698;42.478;23.756;2023-03-19T09:47:53;1.55;;;1.40;;
15194;SDS011;7698;42.478;23.756;2023-03-19T09:50:22;1.67;;;1.58;;
15194;SDS011;7698;42.478;23.756;2023-03-19T09:52:52;1.65;;;1.55;;
15194;SDS011;7698;42.478;23.756;2023-03-19T09:55:27;1.50;;;1.40;;
15194;SDS011;7698;42.478;23.756;2023-03-19T09:57:57;1.83;;;1.73;;
15194;SDS011;7698;42.478;23.756;2023-03-19T10:00:25;1.55;;;1.45;;
15194;SDS011;7698;42.478;23.756;2023-03-19T10:02:54;1.85;;;1.08;;
15194;SDS011;7698;42.478;23.756;2023-03-19T10:05:24;1.67;;;1.40;;
15194;SDS011;7698;42.478;23.756;2023-03-19T10:08:00;1.02;;;0.98;;
15194;SDS011;7698;42.478;23.756;2023-03-19T10:10:33;0.98;;;0.93;;
15194;SDS011;7698;42.478;23.756;2023-03-19T10:13:05;1.10;;;1.00;;
15194;SDS011;7698;42.478;23.756;2023-03-19T10:15:34;1.00;;;0.90;;
15194;SDS011;7698;42.478;23.756;2023-03-19T10:18:04;1.40;;;1.30;;
15194;SDS011;7698;42.478;23.756;2023-03-19T10:20:42;0.90;;;0.90;;
15194;SDS011;7698;42.478;23.756;2023-03-19T10:23:22;0.95;;;0.90;;
15194;SDS011;7698;42.478;23.756;2023-03-19T10:25:50;1.17;;;1.10;;
15194;SDS011;7698;42.478;23.756;2023-03-19T10:28:19;0.90;;;0.90;;
15194;SDS011;7698;42.478;23.756;2023-03-19T10:30:48;0.80;;;0.80;;
15194;SDS011;7698;42.478;23.756;2023-03-19T10:33:21;1.27;;;1.08;;
15194;SDS011;7698;42.478;23.756;2023-03-19T10:35:49;0.82;;;0.82;;
15194;SDS011;7698;42.478;23.756;2023-03-19T10:38:21;0.80;;;0.80;;
15194;SDS011;7698;42.478;23.756;2023-03-19T10:40:50;0.68;;;0.60;;
15194;SDS011;7698;42.478;23.756;2023-03-19T10:43:22;1.20;;;0.80;;
15194;SDS011;7698;42.478;23.756;2023-03-19T10:45:50;1.20;;;1.10;;
15194;SDS011;7698;42.478;23.756;2023-03-19T10:48:18;1.65;;;0.90;;
15194;SDS011;7698;42.478;23.756;2023-03-19T10:50:47;1.33;;;1.23;;
15194;SDS011;7698;42.478;23.756;2023-03-19T10:53:24;1.10;;;1.00;;
15194;SDS011;7698;42.478;23.756;2023-03-19T10:55:52;0.82;;;0.82;;
15194;SDS011;7698;42.478;23.756;2023-03-19T10:58:21;1.30;;;1.20;;
15194;SDS011;7698;42.478;23.756;2023-03-19T11:00:54;1.70;;;1.60;;
15194;SDS011;7698;42.478;23.756;2023-03-19T11:03:31;1.25;;;1.15;;
15194;SDS011;7698;42.478;23.756;2023-03-19T11:06:02;1.00;;;1.00;;
15194;SDS011;7698;42.478;23.756;2023-03-19T11:08:32;0.90;;;0.90;;
15194;SDS011;7698;42.478;23.756;2023-03-19T11:10:59;0.75;;;0.75;;
15194;SDS011;7698;42.478;23.756;2023-03-19T11:13:26;1.10;;;1.00;;
15194;SDS011;7698;42.478;23.756;2023-03-19T11:15:54;0.60;;;0.60;;
15194;SDS011;7698;42.478;23.756;2023-03-19T11:18:23;1.55;;;1.08;;
15194;SDS011;7698;42.478;23.756;2023-03-19T11:20:53;0.68;;;0.68;;
15194;SDS011;7698;42.478;23.756;2023-03-19T11:23:20;0.95;;;0.90;;
15194;SDS011;7698;42.478;23.756;2023-03-19T11:25:50;0.80;;;0.80;;
15194;SDS011;7698;42.478;23.756;2023-03-19T11:28:17;1.02;;;0.90;;
15194;SDS011;7698;42.478;23.756;2023-03-19T11:30:47;0.95;;;0.82;;
15194;SDS011;7698;42.478;23.756;2023-03-19T11:33:17;0.93;;;0.85;;
15194;SDS011;7698;42.478;23.756;2023-03-19T11:35:48;0.80;;;0.70;;
15194;SDS011;7698;42.478;23.756;2023-03-19T11:38:17;0.68;;;0.68;;
15194;SDS011;7698;42.478;23.756;2023-03-19T11:40:47;1.50;;;1.40;;
15194;SDS011;7698;42.478;23.756;2023-03-19T11:46:21;0.82;;;0.80;;
15194;SDS011;7698;42.478;23.756;2023-03-19T11:49:02;0.60;;;0.60;;
15194;SDS011;7698;42.478;23.756;2023-03-19T11:51:34;0.65;;;0.47;;
15194;SDS011;7698;42.478;23.756;2023-03-19T11:54:03;0.68;;;0.68;;
15194;SDS011;7698;42.478;23.756;2023-03-19T11:56:35;0.93;;;0.63;;
15194;SDS011;7698;42.478;23.756;2023-03-19T11:59:08;0.55;;;0.55;;
15194;SDS011;7698;42.478;23.756;2023-03-19T12:01:44;0.60;;;0.60;;
15194;SDS011;7698;42.478;23.756;2023-03-19T12:04:21;0.60;;;0.60;;
15194;SDS011;7698;42.478;23.756;2023-03-19T12:06:55;1.00;;;0.65;;
15194;SDS011;7698;42.478;23.756;2023-03-19T12:09:26;0.40;;;0.40;;
15194;SDS011;7698;42.478;23.756;2023-03-19T12:11:56;0.55;;;0.50;;
15194;SDS011;7698;42.478;23.756;2023-03-19T12:14:30;0.68;;;0.68;;
15194;SDS011;7698;42.478;23.756;2023-03-19T12:17:05;0.70;;;0.60;;
15194;SDS011;7698;42.478;23.756;2023-03-19T12:19:37;0.52;;;0.52;;
15194;SDS011;7698;42.478;23.756;2023-03-19T12:22:08;0.68;;;0.68;;
15194;SDS011;7698;42.478;23.756;2023-03-19T12:24:42;0.88;;;0.70;;
15194;SDS011;7698;42.478;23.756;2023-03-19T12:27:19;0.85;;;0.70;;
15194;SDS011;7698;42.478;23.756;2023-03-19T12:29:49;0.40;;;0.40;;
15194;SDS011;7698;42.478;23.756;2023-03-19T12:32:23;0.50;;;0.50;;
15194;SDS011;7698;42.478;23.756;2023-03-19T12:34:54;0.70;;;0.70;;
15194;SDS011;7698;42.478;23.756;2023-03-19T12:37:25;0.50;;;0.50;;
15194;SDS011;7698;42.478;23.756;2023-03-19T12:39:57;1.13;;;0.68;;
15194;SDS011;7698;42.478;23.756;2023-03-19T12:42:29;0.60;;;0.60;;
15194;SDS011;7698;42.478;23.756;2023-03-19T12:44:58;0.50;;;0.50;;
15194;SDS011;7698;42.478;23.756;2023-03-19T12:47:27;0.43;;;0.43;;
15194;SDS011;7698;42.478;23.756;2023-03-19T12:49:55;0.60;;;0.57;;
15194;SDS011;7698;42.478;23.756;2023-03-19T12:52:25;0.57;;;0.40;;
15194;SDS011;7698;42.478;23.756;2023-03-19T12:54:54;0.43;;;0.43;;
15194;SDS011;7698;42.478;23.756;2023-03-19T12:57:24;0.50;;;0.50;;
15194;SDS011;7698;42.478;23.756;2023-03-19T12:59:53;0.60;;;0.60;;
15194;SDS011;7698;42.478;23.756;2023-03-19T13:02:23;0.50;;;0.50;;
15194;SDS011;7698;42.478;23.756;2023-03-19T13:04:56;0.60;;;0.57;;
15194;SDS011;7698;42.478;23.756;2023-03-19T13:07:27;0.70;;;0.70;;
15194;SDS011;7698;42.478;23.756;2023-03-19T13:09:56;0.63;;;0.55;;
15194;SDS011;7698;42.478;23.756;2023-03-19T13:12:24;0.70;;;0.70;;
15194;SDS011;7698;42.478;23.756;2023-03-19T13:14:54;0.88;;;0.80;;
15194;SDS011;7698;42.478;23.756;2023-03-19T13:17:24;0.70;;;0.70;;
15194;SDS011;7698;42.478;23.756;2023-03-19T13:19:53;0.65;;;0.65;;
15194;SDS011;7698;42.478;23.756;2023-03-19T13:22:22;0.80;;;0.80;;
15194;SDS011;7698;42.478;23.756;2023-03-19T13:24:50;0.73;;;0.57;;
15194;SDS011;7698;42.478;23.756;2023-03-19T13:27:18;0.73;;;0.73;;
15194;SDS011;7698;42.478;23.756;2023-03-19T13:29:57;0.88;;;0.88;;
15194;SDS011;7698;42.478;23.756;2023-03-19T13:32:27;0.70;;;0.60;;
15194;SDS011;7698;42.478;23.756;2023-03-19T13:35:07;0.70;;;0.70;;
15194;SDS011;7698;42.478;23.756;2023-03-19T13:37:35;0.80;;;0.80;;
15194;SDS011;7698;42.478;23.756;2023-03-19T13:40:23;0.63;;;0.63;;
15194;SDS011;7698;42.478;23.756;2023-03-19T13:43:02;1.20;;;1.10;;
15194;SDS011;7698;42.478;23.756;2023-03-19T13:45:30;2.00;;;0.80;;
15194;SDS011;7698;42.478;23.756;2023-03-19T13:50:53;2.22;;;1.30;;
15194;SDS011;7698;42.478;23.756;2023-03-19T13:56:05;1.48;;;0.70;;
15194;SDS011;7698;42.478;23.756;2023-03-19T13:58:44;0.85;;;0.52;;
15194;SDS011;7698;42.478;23.756;2023-03-19T14:04:02;1.60;;;0.70;;
15194;SDS011;7698;42.478;23.756;2023-03-19T14:06:30;0.65;;;0.65;;
15194;SDS011;7698;42.478;23.756;2023-03-19T14:08:58;0.77;;;0.77;;
15194;SDS011;7698;42.478;23.756;2023-03-19T14:11:29;0.75;;;0.75;;
15194;SDS011;7698;42.478;23.756;2023-03-19T14:13:59;1.00;;;0.90;;
15194;SDS011;7698;42.478;23.756;2023-03-19T14:16:29;0.82;;;0.82;;
15194;SDS011;7698;42.478;23.756;2023-03-19T14:18:56;1.17;;;0.95;;
15194;SDS011;7698;42.478;23.756;2023-03-19T14:21:33;0.90;;;0.90;;
15194;SDS011;7698;42.478;23.756;2023-03-19T14:26:43;1.10;;;1.00;;
15194;SDS011;7698;42.478;23.756;2023-03-19T14:29:10;1.00;;;0.90;;
15194;SDS011;7698;42.478;23.756;2023-03-19T14:31:39;0.80;;;0.80;;
15194;SDS011;7698;42.478;23.756;2023-03-19T14:34:18;1.17;;;1.08;;
15194;SDS011;7698;42.478;23.756;2023-03-19T14:36:46;1.40;;;1.30;;
15194;SDS011;7698;42.478;23.756;2023-03-19T14:39:16;1.80;;;1.48;;
15194;SDS011;7698;42.478;23.756;2023-03-19T14:41:47;1.10;;;1.10;;
15194;SDS011;7698;42.478;23.756;2023-03-19T14:44:23;0.70;;;0.70;;
15194;SDS011;7698;42.478;23.756;2023-03-19T14:46:58;1.92;;;0.88;;
15194;SDS011;7698;42.478;23.756;2023-03-19T14:49:40;0.80;;;0.80;;
15194;SDS011;7698;42.478;23.756;2023-03-19T14:52:12;1.20;;;0.82;;
15194;SDS011;7698;42.478;23.756;2023-03-19T14:54:39;0.80;;;0.80;;
15194;SDS011;7698;42.478;23.756;2023-03-19T14:57:13;1.30;;;1.20;;
15194;SDS011;7698;42.478;23.756;2023-03-19T14:59:41;1.55;;;1.40;;
15194;SDS011;7698;42.478;23.756;2023-03-19T15:02:16;1.73;;;1.40;;
15194;SDS011;7698;42.478;23.756;2023-03-19T15:04:44;1.40;;;1.30;;
15194;SDS011;7698;42.478;23.756;2023-03-19T15:07:15;1.48;;;1.30;;
15194;SDS011;7698;42.478;23.756;2023-03-19T15:09:43;1.58;;;1.48;;